Latest Weather Observations for Moorabbin Airport

IDV60901

Issued at 8:21 pm EDT Sunday 24 January 2021 (issued every 10 minutes, with the page automatically refreshed every 10 minutes)

About weather observations | Map of Melbourne area stations | Latest observations for Melbourne area | Other Formats
Station Details ID: 086077 Name: MOORABBIN AIRPORT Lat: -37.98 Lon: 145.10 Height: 12.1 m
Data from the previous 72 hours. | See also: Recent months at Moorabbin Airport
Date/Time
EDT
Temp
°C
App
Temp
°C
Dew
Point
°C
Rel
Hum
%
Delta-T
°C
Wind Press
QNH
hPa
Press
MSL
hPa
Rain since
9am
mm
Dir  Spd
km/h
Gust
km/h
Spd
kts
Gust
kts
24/08:00pm 35.3 33.4 12.9 26 13.6 E 15 20 8 11 1004.2 1004.2 0.0
24/07:30pm 36.6 34.2 12.8 24 14.4 NE 17 20 9 11 1004.1 1004.1 0.0
24/07:00pm 36.9 34.4 13.6 24 14.4 E 19 24 10 13 1004.1 1004.1 0.0
24/06:30pm 37.2 35.2 13.9 25 14.4 E 17 24 9 13 1004.3 1004.3 0.0
24/06:00pm 37.0 35.3 13.7 25 14.4 E 15 20 8 11 1004.6 1004.6 0.0
24/05:30pm 36.1 35.5 12.3 24 14.3 SSW 7 13 4 7 1004.9 1004.9 0.0
24/05:00pm 34.0 33.3 15.5 33 11.6 SSW 13 19 7 10 1005.2 1005.2 0.0
24/04:30pm 34.8 34.6 16.6 33 11.6 SSW 13 17 7 9 1005.6 1005.6 0.0
24/04:00pm 36.0 35.2 15.2 29 13.1 S 13 19 7 10 1006.1 1006.1 0.0
24/03:30pm 34.8 34.9 16.6 33 11.6 SSW 11 15 6 8 1006.7 1006.7 0.0
24/03:00pm 33.8 33.6 17.5 38 10.5 SSW 15 17 8 9 1007.3 1007.3 0.0
24/02:30pm 34.4 33.9 15.8 33 11.7 SSW 13 17 7 9 1007.9 1007.9 0.0
24/02:00pm 33.1 32.4 16.5 37 10.5 SSW 15 19 8 10 1008.3 1008.3 0.0
24/01:30pm 34.3 35.4 17.1 36 11.0 SW 7 15 4 8 1008.6 1008.6 0.0
24/01:00pm 33.2 34.4 17.4 39 10.1 SE 7 13 4 7 1008.8 1008.8 0.0
24/12:30pm 31.9 32.8 16.6 39 9.6 E 7 13 4 7 1009.3 1009.3 0.0
24/12:00pm 30.5 31.5 16.9 44 8.6 ENE 7 11 4 6 1009.7 1009.7 0.0
24/11:30am 29.0 29.4 17.2 49 7.4 ENE 11 15 6 8 1010.0 1010.0 0.0
24/11:00am 27.2 27.9 17.1 54 6.3 E 9 15 5 8 1010.3 1010.3 0.0
24/10:30am 26.0 26.6 17.6 60 5.3 E 11 15 6 8 1010.8 1010.8 0.0
24/10:00am 24.0 24.7 17.0 65 4.3 ENE 9 15 5 8 1010.9 1010.9 0.0
24/09:30am 22.7 23.6 16.7 69 3.7 SE 7 11 4 6 1011.2 1011.2 0.0
24/09:00am 22.2 24.3 17.1 73 3.1 SSE 2 7 1 4 1011.0 1011.0 0.0
24/08:30am 21.1 23.8 17.7 81 2.1 CALM 0 0 0 0 1011.0 1011.0 0.0
24/08:00am 20.1 23.0 18.2 89 1.2 CALM 0 6 0 3 1010.6 1010.6 0.0
24/07:30am 17.6 19.9 17.6 100 0.0 WNW 2 6 1 3 1010.4 1010.4 0.0
24/07:00am 15.9 17.9 15.9 100 0.0 CALM 0 0 0 0 1010.2 1010.2 0.0
24/06:30am 15.5 17.2 15.2 98 0.2 CALM 0 0 0 0 1009.8 1009.8 0.0
24/06:00am 15.7 17.0 15.2 97 0.3 N 2 6 1 3 1009.7 1009.7 0.0
24/05:30am 15.0 16.3 14.2 95 0.5 CALM 0 0 0 0 1009.6 1009.6 0.0
24/05:00am 15.6 15.8 14.6 94 0.6 E 7 7 4 4 1009.4 1009.4 0.0
24/04:30am 15.5 16.9 14.4 93 0.6 CALM 0 0 0 0 1009.6 1009.6 0.0
24/04:00am 15.8 17.2 14.5 92 0.7 CALM 0 0 0 0 1009.7 1009.7 0.0
24/03:30am 16.0 17.4 14.4 90 0.9 CALM 0 6 0 3 1009.7 1009.7 0.0
24/03:00am 17.0 18.7 15.2 89 1.0 CALM 0 0 0 0 1009.9 1009.9 0.0
24/02:30am 16.8 18.4 14.8 88 1.2 CALM 0 0 0 0 1010.1 1010.1 0.0
24/02:00am 17.1 17.3 14.6 85 1.4 NNE 7 9 4 5 1010.3 1010.3 0.0
24/01:30am 17.2 17.4 14.8 86 1.4 SE 7 9 4 5 1010.9 1010.9 0.0
24/01:00am 16.9 18.0 13.4 80 2.0 CALM 0 0 0 0 1011.3 1011.3 0.0
24/12:30am 17.7 19.1 14.4 81 1.9 CALM 0 0 0 0 1011.6 1011.6 0.0
24/12:00am 18.3 19.9 14.8 80 2.0 CALM 0 0 0 0 1011.6 1011.6 0.0
 
Date/Time
EDT
Temp
°C
App
Temp
°C
Dew
Point
°C
Rel
Hum
%
Delta-T
°C
Wind Press
QNH
hPa
Press
MSL
hPa
Rain since
9am
mm
Dir  Spd
km/h
Gust
km/h
Spd
kts
Gust
kts
23/11:30pm 18.4 18.6 14.7 79 2.1 WSW 7 9 4 5 1012.3 1012.3 0.0
23/11:00pm 18.5 19.3 14.8 79 2.2 ENE 4 9 2 5 1012.0 1012.0 0.0
23/10:30pm 18.6 17.6 14.7 78 2.3 SE 13 17 7 9 1012.3 1012.3 0.0
23/10:00pm 19.0 17.8 14.1 73 2.8 SE 13 17 7 9 1012.2 1012.2 0.0
23/09:30pm 19.8 17.6 14.4 71 3.1 SSE 19 22 10 12 1011.9 1011.9 0.0
23/09:00pm 20.8 19.1 14.7 68 3.6 SSE 17 22 9 12 1011.4 1011.4 0.0
23/08:30pm 22.1 20.1 15.0 64 4.2 SSE 19 22 10 12 1010.8 1010.8 0.0
23/08:00pm 23.2 21.2 15.0 60 4.9 SE 19 24 10 13 1010.3 1010.3 0.0
23/07:30pm 24.5 22.1 15.4 57 5.5 SE 22 28 12 15 1009.6 1009.6 0.0
23/07:00pm 26.1 23.1 15.8 53 6.3 SE 26 32 14 17 1009.5 1009.5 0.0
23/06:30pm 27.8 25.5 15.8 48 7.4 SSE 22 30 12 16 1009.4 1009.4 0.0
23/06:00pm 27.5 26.1 17.1 53 6.5 SSW 20 26 11 14 1009.4 1009.4 0.0
23/05:30pm 26.1 25.0 17.2 58 5.6 SW 19 24 10 13 1009.5 1009.5 0.0
23/05:00pm 24.6 23.6 16.6 61 4.9 SSW 17 20 9 11 1009.6 1009.6 0.0
23/04:30pm 24.4 23.9 16.9 63 4.6 SW 15 20 8 11 1009.9 1009.9 0.0
23/04:00pm 23.7 22.7 16.5 64 4.4 SSW 17 22 9 12 1010.3 1010.3 0.0
23/03:30pm 23.1 20.7 16.4 66 4.1 SSW 24 30 13 16 1010.9 1010.9 0.0
23/03:00pm 23.7 23.1 16.7 65 4.3 SSW 15 20 8 11 1011.0 1011.0 0.0
23/02:30pm 23.2 22.0 16.0 64 4.4 SW 17 22 9 12 1011.3 1011.3 0.0
23/02:00pm 23.0 21.8 16.1 65 4.2 SSW 17 22 9 12 1011.6 1011.6 0.0
23/01:30pm 22.5 21.5 15.6 65 4.1 SSW 15 20 8 11 1011.8 1011.8 0.0
23/01:00pm 22.0 21.4 15.6 67 3.8 SW 13 20 7 11 1012.4 1012.4 0.0
23/12:30pm 21.2 19.5 14.6 66 3.9 SW 17 24 9 13 1012.7 1012.7 0.0
23/12:00pm 21.2 19.9 14.8 67 3.8 SW 15 20 8 11 1012.7 1012.7 0.0
23/11:30am 20.8 19.3 14.2 66 3.8 SSW 15 20 8 11 1012.9 1012.9 0.0
23/11:00am 20.0 18.1 14.1 69 3.4 S 17 22 9 12 1012.8 1012.8 0.0
23/10:30am 19.6 18.9 13.3 67 3.6 S 9 19 5 10 1012.8 1012.8 0.0
23/10:00am 20.2 20.2 14.3 69 3.4 SSW 7 11 4 6 1012.8 1012.8 0.0
23/09:30am 18.9 18.9 13.5 71 3.1 NW 6 13 3 7 1013.0 1013.0 0.0
23/09:00am 17.9 17.6 13.4 75 2.5 S 7 9 4 5 1013.0 1013.0 0.0
23/08:30am 17.5 16.7 13.0 75 2.5 ESE 9 11 5 6 1013.1 1013.1 0.0
23/08:00am 17.1 16.7 13.0 77 2.3 SE 7 11 4 6 1012.7 1012.7 0.0
23/07:30am 17.1 17.0 13.2 78 2.2 SSE 6 7 3 4 1012.4 1012.4 0.0
23/07:00am 16.7 15.9 12.8 78 2.2 E 9 13 5 7 1011.9 1011.9 0.0
23/06:30am 16.7 15.6 13.0 79 2.1 ESE 11 15 6 8 1011.8 1011.8 0.0
23/06:00am 16.9 16.2 13.2 79 2.1 ESE 9 11 5 6 1011.7 1011.7 0.0
23/05:30am 16.9 16.1 13.0 78 2.2 E 9 13 5 7 1011.5 1011.5 0.0
23/05:00am 16.7 16.4 13.2 80 2.0 ESE 7 9 4 5 1011.3 1011.3 0.0
23/04:30am 16.1 17.2 13.4 84 1.5 CALM 0 0 0 0 1011.3 1011.3 0.0
23/04:00am 15.8 16.7 12.9 83 1.6 CALM 0 0 0 0 1011.3 1011.3 0.0
23/03:30am 15.7 16.4 12.3 80 1.9 CALM 0 0 0 0 1011.1 1011.1 0.0
23/03:00am 16.5 17.4 12.8 79 2.1 CALM 0 0 0 0 1011.5 1011.5 0.0
23/02:30am 16.6 17.5 12.9 79 2.1 CALM 0 0 0 0 1011.8 1011.8 0.0
23/02:00am 16.7 16.5 13.0 79 2.1 SSW 6 7 3 4 1012.2 1012.2 0.0
23/01:30am 16.8 16.4 13.1 79 2.1 E 7 11 4 6 1012.5 1012.5 0.0
23/01:00am 16.8 15.7 13.1 79 2.1 ESE 11 13 6 7 1012.8 1012.8 0.0
23/12:30am 16.9 15.4 13.2 79 2.1 SE 13 17 7 9 1012.8 1012.8 0.0
23/12:00am 17.0 14.9 13.5 80 2.0 SE 17 20 9 11 1013.1 1013.1 0.0
 
Date/Time
EDT
Temp
°C
App
Temp
°C
Dew
Point
°C
Rel
Hum
%
Delta-T
°C
Wind Press
QNH
hPa
Press
MSL
hPa
Rain since
9am
mm
Dir  Spd
km/h
Gust
km/h
Spd
kts
Gust
kts
22/11:30pm 17.1 15.8 13.6 80 2.0 SSE 13 19 7 10 1013.1 1013.1 0.0
22/11:00pm 16.6 15.2 13.5 82 1.7 SSE 13 15 7 8 1012.9 1012.9 0.0
22/10:30pm 16.7 14.9 13.4 81 1.9 SSE 15 19 8 10 1012.9 1012.9 0.0
22/10:00pm 16.7 15.2 13.0 79 2.1 SE 13 17 7 9 1012.6 1012.6 0.0
22/09:30pm 17.6 15.5 13.5 77 2.3 SE 17 20 9 11 1012.3 1012.3 0.0
22/09:00pm 18.2 17.0 14.1 77 2.4 S 13 20 7 11 1011.8 1011.8 0.0
22/08:30pm 18.6 16.4 14.3 76 2.5 SSW 19 24 10 13 1011.3 1011.3 0.0
22/08:00pm 18.9 16.8 14.6 76 2.5 SSW 19 30 10 16 1011.1 1011.1 0.0
22/07:30pm 19.5 16.8 14.5 73 2.9 SSW 22 28 12 15 1010.7 1010.7 0.0
22/07:00pm 19.9 16.7 14.3 70 3.3 SSW 24 33 13 18 1010.5 1010.5 0.0
22/06:30pm 19.8 15.6 14.6 72 3.0 SSW 30 41 16 22 1010.4 1010.4 0.0
22/06:00pm 20.1 15.5 14.7 71 3.2 SSW 32 41 17 22 1010.3 1010.3 0.0
22/05:30pm 20.8 16.2 14.5 67 3.7 SSW 32 43 17 23 1010.1 1010.1 0.0
22/05:00pm 21.4 17.5 15.5 69 3.5 SSW 30 39 16 21 1009.8 1009.8 0.0
22/04:30pm 22.0 18.7 14.1 61 4.6 SW 24 32 13 17 1009.7 1009.7 0.0
22/04:00pm 23.4 21.0 13.8 54 5.6 SW 19 24 10 13 1009.6 1009.6 0.0
22/03:30pm 23.3 22.0 13.8 55 5.5 SSW 13 17 7 9 1009.6 1009.6 0.0
22/03:00pm 23.3 21.3 14.0 56 5.5 SSW 17 20 9 11 1010.0 1010.0 0.0
22/02:30pm 22.6 20.2 13.9 58 5.1 SSW 19 24 10 13 1010.2 1010.2 0.0
22/02:00pm 21.8 19.7 15.2 66 3.9 SSW 20 28 11 15 1010.3 1010.3 0.0
22/01:30pm 21.9 19.8 16.2 70 3.4 SW 22 28 12 15 1010.3 1010.3 0.0
22/01:00pm 20.8 18.3 15.1 70 3.4 SW 22 30 12 16 1010.4 1010.4 0.0
22/12:30pm 20.5 18.4 15.1 71 3.2 SW 20 26 11 14 1010.2 1010.2 0.0
22/12:00pm 20.5 18.7 15.5 73 3.0 SSW 19 24 10 13 1010.2 1010.2 0.0
22/11:30am 20.8 20.1 15.4 71 3.2 SSW 13 19 7 10 1010.1 1010.1 0.0
22/11:00am 20.7 19.9 15.0 70 3.4 SW 13 17 7 9 1009.9 1009.9 0.0
22/10:30am 20.9 19.8 15.2 70 3.4 SW 15 20 8 11 1009.7 1009.7 0.0
22/10:00am 20.1 19.2 13.8 67 3.6 WSW 11 17 6 9 1009.4 1009.4 0.0
22/09:30am 20.5 19.4 14.2 67 3.7 W 13 19 7 10 1009.6 1009.6 0.0
22/09:00am 20.6 18.9 13.6 64 4.0 W 15 22 8 12 1009.5 1009.5 0.0
22/08:30am 19.4 18.0 13.3 68 3.5 W 13 20 7 11 1009.2 1009.2 0.0
22/08:00am 18.6 18.6 14.1 75 2.6 NW 7 15 4 8 1008.8 1008.8 0.0
22/07:30am 17.6 17.5 15.0 85 1.5 WNW 9 11 5 6 1008.7 1008.7 0.0
22/07:00am 16.1 15.7 14.1 88 1.1 N 9 11 5 6 1008.1 1008.1 0.0
22/06:30am 16.2 16.3 14.4 89 1.0 WNW 7 9 4 5 1007.9 1007.9 0.0
22/06:00am 15.7 15.9 14.1 90 0.9 NNW 6 7 3 4 1007.7 1007.7 0.0
22/05:30am 16.0 16.1 14.0 88 1.1 NNW 6 7 3 4 1007.6 1007.6 0.0
22/05:00am 16.7 17.1 15.2 91 0.9 NW 7 11 4 6 1007.3 1007.3 0.0
22/04:30am 16.9 17.2 15.9 94 0.6 NNW 9 11 5 6 1007.0 1007.0 0.0
22/04:00am 16.6 16.1 15.8 95 0.5 N 13 13 7 7 1006.9 1006.9 0.0
22/03:30am 17.5 18.1 16.9 96 0.4 N 9 13 5 7 1007.3 1007.3 0.0
22/03:00am 18.0 19.0 17.7 98 0.2 NNW 9 13 5 7 1007.4 1007.4 0.0
22/02:30am 18.2 19.6 17.4 95 0.5 NNW 6 7 3 4 1007.6 1007.6 0.0
22/02:00am 18.8 20.3 18.1 96 0.4 WNW 7 11 4 6 1007.8 1007.8 0.0
22/01:30am 19.2 20.5 18.4 95 0.5 W 9 13 5 7 1008.2 1008.2 0.0
22/01:00am 19.6 20.6 18.6 94 0.6 WSW 11 15 6 8 1008.2 1008.2 0.0
22/12:30am 20.0 21.0 18.7 92 0.8 WSW 11 17 6 9 1008.4 1008.4 0.0
22/12:00am 20.6 20.9 18.0 85 1.6 WSW 13 17 7 9 1008.2 1008.2 0.0
 
Date/Time
EDT
Temp
°C
App
Temp
°C
Dew
Point
°C
Rel
Hum
%
Delta-T
°C
Wind Press
QNH
hPa
Press
MSL
hPa
Rain since
9am
mm
Dir  Spd
km/h
Gust
km/h
Spd
kts
Gust
kts
21/11:30pm 21.2 21.1 17.0 77 2.6 WSW 13 17 7 9 1008.3 1008.3 0.0
21/11:00pm 21.5 21.5 15.1 67 3.8 SSW 9 11 5 6 1008.4 1008.4 0.0
21/10:30pm 21.7 21.3 15.1 66 3.9 SSE 11 13 6 7 1008.3 1008.3 0.0
21/10:00pm 22.0 21.2 13.9 60 4.7 SE 11 13 6 7 1008.2 1008.2 0.0
21/09:30pm 23.4 22.4 13.3 53 5.8 SE 11 15 6 8 1008.1 1008.1 0.0
21/09:00pm 24.1 22.8 13.6 52 6.1 SE 13 17 7 9 1008.1 1008.1 0.0
21/08:30pm 25.3 23.1 13.2 47 7.1 SSE 17 24 9 13 1008.1 1008.1 0.0

Latest Capital City Observations: Canberra | Sydney | Melbourne | Brisbane | Adelaide | Perth | Hobart | Darwin

Other formats

Comma delimited format used in spreadsheet applications
http://www.bom.gov.au/fwo/IDV60901/IDV60901.94870.axf

JavaScript Object Notation format (JSON) in row-major order
http://www.bom.gov.au/fwo/IDV60901/IDV60901.94870.json

Data quality

Most of these data are generated automatically and are frequently updated. Quality checks on data are not normally performed. It is possible for incorrect values to appear. Refer to information at About Latest Weather Observations and please check the disclaimer before using these data.